Sebastian Elcano, Argentina
Current Conditions -  °F | °C
As of 11:00 PM on Thursday 18 Dec 2014 (Local Time) from SACO Reporting Station
Clear Clear  
Wind Chill: 70°   Ceiling: Unl
Heat Index: 70°   Visibility: 6mi
Dew Point: 61°   Wind: 7mph
Humidity: 73%   Direction: 20°NNE
Pressure: 29.88"   Gusts: NA
Location:  30.15°S, 63.58°W
Report Text: SACO 190200Z 02006KT CAVOK 21/16 Q1012
Loading
Personal Weather Stations






























Interactive Weather Map New forecast layout! Learn more

10-Day Weather Forecast

Advertisements
Track Severe Weather on mobile